Time;durP1;ratioP1;P1;durP2;ratioP2;P2;SDS_P1;SDS_P2;PMS_P1;PMS_P2;Temp;Humidity;BMP_temperature;BMP_pressure;BME280_temperature;BME280_humidity;BME280_pressure;Samples;Min_cycle;Max_cycle;Signal;HPM_P1;HPM_P2
2021/07/03 00:01:25;;;;;;;4.10;2.17;;;;;;;18.69;68.82;100429.12;1720326;83;25717;-60
2021/07/03 00:03:52;;;;;;;7.10;2.33;;;;;;;18.57;68.81;100429.37;1721752;80;28140;-60
2021/07/03 00:06:20;;;;;;;7.97;2.27;;;;;;;18.48;68.97;100430.02;1750312;80;25471;-60
2021/07/03 00:08:47;;;;;;;3.72;2.45;;;;;;;18.44;69.56;100438.27;1750237;82;25766;-60
2021/07/03 00:11:14;;;;;;;4.33;2.52;;;;;;;18.36;69.74;100439.23;1750377;82;25640;-59
2021/07/03 00:13:42;;;;;;;4.10;2.72;;;;;;;18.28;70.00;100435.30;1748977;81;25732;-60
2021/07/03 00:16:10;;;;;;;5.00;2.65;;;;;;;18.23;70.43;100439.14;1731348;82;27485;-60
2021/07/03 00:18:37;;;;;;;5.75;2.15;;;;;;;18.12;71.33;100435.89;1720227;82;25759;-59
2021/07/03 00:21:05;;;;;;;2.58;2.17;;;;;;;18.11;70.87;100437.42;1720224;82;25754;-59
2021/07/03 00:23:32;;;;;;;5.00;2.10;;;;;;;18.06;71.26;100438.04;1707735;83;25628;-60
2021/07/03 00:26:00;;;;;;;5.62;2.42;;;;;;;18.07;70.94;100434.25;1753376;81;26635;-59
2021/07/03 00:28:27;;;;;;;3.65;2.67;;;;;;;18.08;71.28;100442.74;1765529;81;27531;-60
2021/07/03 00:30:54;;;;;;;6.08;2.40;;;;;;;18.11;71.18;100442.37;1766605;79;25797;-60
2021/07/03 00:33:21;;;;;;;4.83;2.72;;;;;;;18.09;71.46;100442.24;1766637;81;25678;-60
2021/07/03 00:35:48;;;;;;;5.70;2.20;;;;;;;18.08;71.44;100448.19;1749770;82;26374;-59
2021/07/03 00:38:15;;;;;;;5.15;2.40;;;;;;;18.09;71.52;100447.69;1749046;82;25634;-60
2021/07/03 00:40:42;;;;;;;8.08;2.77;;;;;;;18.14;71.82;100447.94;1749029;82;27490;-60
2021/07/03 00:43:10;;;;;;;8.55;2.15;;;;;;;18.12;71.70;100451.36;1765635;81;25687;-58
2021/07/03 00:45:37;;;;;;;5.87;2.20;;;;;;;18.08;71.49;100452.80;1781911;80;25869;-58
2021/07/03 00:48:05;;;;;;;3.02;2.25;;;;;;;18.06;71.78;100442.62;1765857;81;26201;-58
2021/07/03 00:50:33;;;;;;;11.57;2.95;;;;;;;18.04;72.06;100446.91;1773451;80;25778;-58
2021/07/03 00:53:01;;;;;;;4.70;2.52;;;;;;;18.00;72.18;100453.76;1765735;81;27477;-59
2021/07/03 00:55:30;;;;;;;10.08;2.25;;;;;;;17.93;72.34;100445.48;1765742;81;25767;-60
2021/07/03 00:57:58;;;;;;;2.75;2.00;;;;;;;17.91;72.37;100444.86;1766262;80;25797;-59
2021/07/03 01:00:26;;;;;;;7.15;2.52;;;;;;;17.86;72.57;100446.47;1765354;80;25578;-61
2021/07/03 01:02:55;;;;;;;3.30;2.20;;;;;;;17.84;72.93;100435.75;1765802;81;25694;-60
2021/07/03 01:05:22;;;;;;;3.98;2.72;;;;;;;17.82;73.21;100433.77;1744155;81;27613;-59
2021/07/03 01:07:50;;;;;;;3.95;2.27;;;;;;;17.76;73.61;100435.38;1765569;81;25826;-59
2021/07/03 01:10:25;;;;;;;7.33;2.50;;;;;;;17.72;73.82;100437.31;1735674;82;25743;-59
2021/07/03 01:12:55;;;;;;;3.47;2.40;;;;;;;17.66;73.58;100428.03;1760258;81;25718;-59
2021/07/03 01:15:23;;;;;;;3.58;2.33;;;;;;;17.62;73.90;100426.72;1758643;81;25519;-60
2021/07/03 01:17:50;;;;;;;3.70;2.40;;;;;;;17.57;73.70;100424.56;1756982;81;27523;-59
2021/07/03 01:20:19;;;;;;;7.72;2.47;;;;;;;17.55;73.95;100434.81;1758402;81;25756;-60
2021/07/03 01:22:48;;;;;;;3.77;2.50;;;;;;;17.56;73.82;100432.42;1734999;82;25675;-59
2021/07/03 01:25:17;;;;;;;10.50;2.92;;;;;;;17.53;73.90;100429.55;1765673;81;26167;-59
2021/07/03 01:28:04;;;;;;;3.50;2.80;;;;;;;17.55;73.90;100428.02;1766964;80;25827;-59
2021/07/03 01:30:33;;;;;;;3.90;2.60;;;;;;;17.52;73.97;100431.97;1737298;82;27462;-59
2021/07/03 01:33:01;;;;;;;5.62;2.87;;;;;;;17.51;73.91;100432.14;1737227;81;25664;-60
2021/07/03 01:35:31;;;;;;;3.80;2.22;;;;;;;17.53;73.78;100436.34;1737298;82;25763;-59
2021/07/03 01:38:00;;;;;;;4.40;2.95;;;;;;;17.53;73.86;100435.52;1736590;82;25740;-59
2021/07/03 01:40:28;;;;;;;4.75;2.70;;;;;;;17.56;74.20;100444.67;1737432;82;26402;-59
2021/07/03 01:42:56;;;;;;;7.87;3.10;;;;;;;17.63;73.30;100438.78;1761399;81;27486;-60
2021/07/03 01:45:23;;;;;;;5.85;2.80;;;;;;;17.71;73.38;100442.42;1765605;81;25798;-60
2021/07/03 01:47:51;;;;;;;10.08;2.75;;;;;;;17.75;73.13;100436.94;1765458;81;25746;-60
2021/07/03 01:50:18;;;;;;;8.15;2.45;;;;;;;17.82;72.96;100434.59;1765638;81;26666;-60
2021/07/03 01:52:45;;;;;;;6.47;2.37;;;;;;;17.91;72.52;100438.55;1767934;81;25742;-60
2021/07/03 01:55:14;;;;;;;8.28;2.87;;;;;;;17.95;72.34;100440.70;1767894;80;27902;-60
2021/07/03 01:57:42;;;;;;;3.85;2.40;;;;;;;18.03;72.15;100446.58;1767473;81;25983;-60
2021/07/03 02:00:28;;;;;;;3.98;2.65;;;;;;;17.99;71.79;100444.77;1767608;79;25674;-60
2021/07/03 02:02:56;;;;;;;4.62;3.15;;;;;;;18.04;71.59;100445.55;1764746;80;25773;-60
2021/07/03 02:05:25;;;;;;;7.47;2.33;;;;;;;18.08;71.53;100440.55;1762912;80;25723;-60
2021/07/03 02:07:52;;;;;;;3.37;2.72;;;;;;;18.13;71.47;100437.58;1767675;80;27458;-60
2021/07/03 02:10:20;;;;;;;7.12;2.37;;;;;;;18.19;71.29;100440.05;1767094;80;26330;-60
2021/07/03 02:12:48;;;;;;;3.30;2.27;;;;;;;18.18;71.01;100437.50;1765460;81;25683;-59
2021/07/03 02:15:17;;;;;;;5.53;2.72;;;;;;;18.22;71.02;100432.83;1764828;81;27655;-59
2021/07/03 02:17:46;;;;;;;3.67;1.90;;;;;;;18.27;70.80;100439.05;1763969;81;25735;-60
2021/07/03 02:20:16;;;;;;;6.60;2.20;;;;;;;18.34;70.79;100440.48;1765552;81;28182;-59
2021/07/03 02:22:51;;;;;;;4.28;2.42;;;;;;;18.42;70.50;100443.06;1762865;81;25542;-59
2021/07/03 02:25:21;;;;;;;7.35;2.22;;;;;;;18.49;70.42;100439.88;1775509;80;25821;-59
2021/07/03 02:27:50;;;;;;;10.20;3.08;;;;;;;18.57;69.96;100442.98;1776101;80;25825;-60
2021/07/03 02:30:19;;;;;;;8.28;2.62;;;;;;;18.57;69.44;100439.73;1776000;80;25889;-60
2021/07/03 02:32:47;;;;;;;4.87;3.05;;;;;;;18.57;69.24;100438.91;1776299;80;27441;-59
2021/07/03 02:35:16;;;;;;;6.58;2.98;;;;;;;18.51;69.12;100444.61;1775781;80;25787;-59
2021/07/03 02:37:45;;;;;;;6.85;3.08;;;;;;;18.46;69.16;100448.45;1775996;80;25810;-60
2021/07/03 02:40:16;;;;;;;6.12;3.10;;;;;;;18.43;69.24;100441.50;1763992;80;25842;-60
2021/07/03 02:42:44;;;;;;;3.55;2.62;;;;;;;18.40;69.17;100443.77;1762528;80;25774;-60
2021/07/03 02:45:16;;;;;;;5.47;2.55;;;;;;;18.38;69.27;100449.43;1775955;80;27467;-60
2021/07/03 02:47:45;;;;;;;3.98;2.80;;;;;;;18.34;69.23;100452.20;1775882;80;25760;-60
2021/07/03 02:50:16;;;;;;;6.08;2.80;;;;;;;18.27;69.35;100449.95;1772231;80;25733;-60
2021/07/03 02:52:45;;;;;;;5.83;2.65;;;;;;;18.28;69.44;100454.36;1749636;82;26159;-60
2021/07/03 02:55:14;;;;;;;10.15;2.37;;;;;;;18.27;69.56;100448.58;1753654;80;25800;-60
2021/07/03 02:57:42;;;;;;;7.15;2.65;;;;;;;18.30;69.70;100448.20;1755311;81;27488;-60
2021/07/03 03:00:16;;;;;;;6.45;2.95;;;;;;;18.35;69.62;100445.72;1754781;81;25661;-60
2021/07/03 03:02:45;;;;;;;4.20;2.80;;;;;;;18.39;69.60;100442.09;1754748;81;25715;-60
2021/07/03 03:05:14;;;;;;;5.83;2.65;;;;;;;18.29;69.14;100443.26;1751572;81;25659;-60
2021/07/03 03:07:43;;;;;;;7.15;2.60;;;;;;;18.19;69.14;100441.41;1734603;80;25473;-60
2021/07/03 03:10:15;;;;;;;8.20;2.90;;;;;;;18.12;69.57;100444.56;1775846;80;28209;-60
2021/07/03 03:12:44;;;;;;;11.83;4.28;;;;;;;18.00;70.03;100445.59;1768847;80;25777;-60
2021/07/03 03:15:14;;;;;;;4.42;3.15;;;;;;;17.89;70.43;100454.22;1754748;81;25816;-59
2021/07/03 03:17:43;;;;;;;4.35;2.52;;;;;;;17.79;70.57;100447.24;1754862;81;25803;-60
2021/07/03 03:20:12;;;;;;;4.12;3.17;;;;;;;17.77;70.79;100447.09;1755003;81;25702;-60
2021/07/03 03:22:41;;;;;;;9.03;2.67;;;;;;;17.71;71.38;100447.33;1755726;79;27468;-60
2021/07/03 03:25:10;;;;;;;4.55;2.75;;;;;;;17.61;71.80;100444.09;1767718;81;25760;-60
2021/07/03 03:27:38;;;;;;;7.22;2.77;;;;;;;17.51;72.05;100442.52;1767984;81;25722;-60
2021/07/03 03:30:08;;;;;;;6.05;3.02;;;;;;;17.46;72.57;100454.47;1766003;79;25929;-60
2021/07/03 03:32:37;;;;;;;7.65;2.90;;;;;;;17.41;72.90;100449.26;1794826;78;25681;-60
2021/07/03 03:35:07;;;;;;;4.00;2.30;;;;;;;17.40;72.70;100446.21;1795022;79;27434;-60
2021/07/03 03:37:34;;;;;;;8.45;2.65;;;;;;;17.40;73.05;100442.12;1794794;79;26506;-60
2021/07/03 03:40:04;;;;;;;6.22;2.75;;;;;;;17.39;72.94;100445.91;1794960;79;25765;-60
2021/07/03 03:42:32;;;;;;;8.45;2.77;;;;;;;17.40;72.96;100449.79;1779639;79;26162;-59
2021/07/03 03:44:59;;;;;;;3.65;2.35;;;;;;;17.44;72.86;100456.52;1783132;79;25742;-59
2021/07/03 03:47:27;;;;;;;6.67;2.70;;;;;;;17.45;72.62;100456.85;1786670;80;28253;-59
2021/07/03 03:49:54;;;;;;;6.22;2.45;;;;;;;17.50;72.86;100453.06;1768795;80;25752;-60
2021/07/03 03:52:22;;;;;;;8.05;2.72;;;;;;;17.55;72.73;100455.72;1786132;80;25763;-59
2021/07/03 03:54:50;;;;;;;9.50;2.83;;;;;;;17.60;72.71;100456.00;1786654;80;25549;-60
2021/07/03 03:57:21;;;;;;;8.28;3.05;;;;;;;17.71;72.41;100451.41;1777109;80;25697;-60
2021/07/03 03:59:51;;;;;;;15.83;2.92;;;;;;;17.83;72.13;100457.22;1770233;81;27468;-59
2021/07/03 04:02:21;;;;;;;5.85;2.72;;;;;;;17.93;71.76;100459.09;1770324;79;25782;-60
2021/07/03 04:04:52;;;;;;;13.70;2.37;;;;;;;18.10;71.56;100461.63;1776364;78;25886;-60
2021/07/03 04:07:20;;;;;;;6.00;2.65;;;;;;;18.21;71.27;100459.73;1786968;80;25790;-60
2021/07/03 04:09:49;;;;;;;5.17;2.58;;;;;;;18.35;70.92;100462.06;1785146;80;25659;-60
2021/07/03 04:12:18;;;;;;;6.35;2.62;;;;;;;18.46;70.34;100458.82;1770749;81;27479;-60
2021/07/03 04:14:45;;;;;;;5.95;2.55;;;;;;;18.56;70.21;100457.11;1770112;81;25897;-58
2021/07/03 04:17:13;;;;;;;7.25;2.87;;;;;;;18.71;69.73;100460.28;1770905;81;25710;-60
2021/07/03 04:19:40;;;;;;;6.53;2.70;;;;;;;18.80;69.61;100456.38;1770391;81;25738;-60
2021/07/03 04:22:07;;;;;;;7.53;2.85;;;;;;;18.86;68.71;100451.48;1770358;81;25689;-59
2021/07/03 04:24:35;;;;;;;10.05;2.85;;;;;;;18.89;68.65;100447.51;1751913;80;27477;-59
2021/07/03 04:27:03;;;;;;;5.15;2.62;;;;;;;18.88;68.35;100448.55;1728860;83;25965;-60
2021/07/03 04:29:31;;;;;;;5.37;2.58;;;;;;;18.87;68.41;100445.52;1688737;83;25707;-59
2021/07/03 04:31:58;;;;;;;5.78;2.35;;;;;;;18.94;68.46;100442.35;1729221;83;25807;-59
2021/07/03 04:34:26;;;;;;;5.92;2.67;;;;;;;19.05;68.34;100454.03;1729132;83;25716;-59
2021/07/03 04:36:54;;;;;;;3.12;2.20;;;;;;;19.10;67.78;100453.44;1729592;83;27435;-59
2021/07/03 04:39:21;;;;;;;4.08;2.60;;;;;;;19.14;67.48;100454.73;1730464;82;25869;-59
2021/07/03 04:41:48;;;;;;;6.95;2.33;;;;;;;19.14;67.54;100453.91;1746988;82;25696;-60
2021/07/03 04:44:16;;;;;;;3.05;2.40;;;;;;;19.16;67.44;100458.11;1746919;82;25748;-60
2021/07/03 04:46:45;;;;;;;10.28;2.40;;;;;;;19.22;67.52;100459.20;1747122;82;25767;-60
2021/07/03 04:49:13;;;;;;;26.25;13.62;;;;;;;19.30;67.08;100459.03;1747010;81;27450;-60
2021/07/03 04:51:41;;;;;;;7.40;2.67;;;;;;;19.35;66.65;100458.42;1733511;82;25758;-60
2021/07/03 04:54:09;;;;;;;4.83;2.30;;;;;;;19.42;66.85;100455.20;1729416;82;25763;-60
2021/07/03 04:56:36;;;;;;;8.23;2.65;;;;;;;19.49;66.35;100454.70;1740891;82;25799;-60
2021/07/03 04:59:03;;;;;;;6.50;2.35;;;;;;;19.64;66.41;100449.10;1731284;82;25851;-60
2021/07/03 05:01:31;;;;;;;3.72;2.15;;;;;;;19.72;65.68;100452.19;1729057;83;27474;-59
2021/07/03 05:03:58;;;;;;;6.78;2.20;;;;;;;19.68;65.30;100457.72;1728855;81;25779;-60
2021/07/03 05:06:24;;;;;;;7.12;2.67;;;;;;;19.64;65.41;100449.10;1725172;83;25741;-59
2021/07/03 05:08:51;;;;;;;9.15;2.17;;;;;;;19.61;65.64;100456.32;1725516;83;25710;-60
2021/07/03 05:11:18;;;;;;;4.78;1.80;;;;;;;19.61;65.84;100464.50;1725443;83;26317;-60
2021/07/03 05:13:45;;;;;;;10.28;2.45;;;;;;;19.59;65.69;100459.77;1755255;80;27606;-60
2021/07/03 05:16:12;;;;;;;8.23;2.62;;;;;;;19.58;65.95;100462.71;1755146;81;25554;-60
2021/07/03 05:18:39;;;;;;;3.62;2.87;;;;;;;19.52;65.99;100470.68;1755072;81;25688;-60
2021/07/03 05:21:06;;;;;;;8.90;2.30;;;;;;;19.48;65.99;100465.30;1754970;81;25742;-60
2021/07/03 05:23:33;;;;;;;7.20;2.95;;;;;;;19.43;66.13;100470.52;1756862;80;25639;-60
2021/07/03 05:26:01;;;;;;;3.70;2.02;;;;;;;19.46;66.40;100472.83;1767894;81;28168;-60
2021/07/03 05:28:28;;;;;;;2.98;1.80;;;;;;;19.62;66.52;100479.01;1757489;81;25767;-60
2021/07/03 05:30:56;;;;;;;3.20;1.98;;;;;;;19.78;66.24;100475.06;1751895;81;25542;-59
2021/07/03 05:33:23;;;;;;;3.37;1.98;;;;;;;19.83;65.27;100485.69;1750213;81;25855;-60
2021/07/03 05:35:51;;;;;;;5.28;2.62;;;;;;;19.90;64.85;100476.73;1752769;81;25718;-60
2021/07/03 05:38:18;;;;;;;7.22;2.25;;;;;;;19.91;64.92;100481.13;1749053;79;27556;-60
2021/07/03 05:40:45;;;;;;;5.62;2.42;;;;;;;19.97;64.82;100483.88;1757750;81;25881;-60
2021/07/03 05:43:12;;;;;;;6.12;2.70;;;;;;;20.04;64.69;100477.08;1751336;81;25952;-60
2021/07/03 05:45:39;;;;;;;8.80;2.83;;;;;;;20.06;64.46;100479.59;1754733;81;25709;-60
2021/07/03 05:48:06;;;;;;;5.45;2.20;;;;;;;20.11;64.41;100482.56;1754664;81;25671;-60
2021/07/03 05:50:33;;;;;;;5.33;2.17;;;;;;;20.24;64.48;100475.75;1756557;81;27493;-60
2021/07/03 05:53:00;;;;;;;5.62;2.40;;;;;;;20.36;64.00;100483.34;1752630;81;25824;-60
2021/07/03 05:55:27;;;;;;;3.62;2.37;;;;;;;20.35;63.71;100483.84;1758938;81;25781;-59
2021/07/03 05:57:54;;;;;;;4.72;2.75;;;;;;;20.41;63.86;100480.30;1767821;79;26156;-59
2021/07/03 06:00:21;;;;;;;5.30;1.90;;;;;;;20.51;63.52;100479.05;1767890;81;25772;-59
2021/07/03 06:02:48;;;;;;;7.22;2.17;;;;;;;20.60;63.68;100477.25;1767710;81;27484;-59
2021/07/03 06:05:16;;;;;;;4.50;2.15;;;;;;;20.74;63.68;100485.50;1767788;79;25674;-59
2021/07/03 06:07:43;;;;;;;5.30;2.10;;;;;;;20.95;63.59;100481.16;1795172;79;25453;-59
2021/07/03 06:10:12;;;;;;;4.58;2.30;;;;;;;21.09;62.43;100486.62;1795046;78;26181;-60
2021/07/03 06:12:40;;;;;;;3.92;2.30;;;;;;;21.16;62.36;100477.87;1795137;79;25730;-59
2021/07/03 06:15:10;;;;;;;3.15;2.02;;;;;;;21.36;62.46;100476.98;1794891;79;28107;-59
2021/07/03 06:17:38;;;;;;;4.80;2.62;;;;;;;21.61;62.24;100475.75;1795241;78;25714;-59
2021/07/03 06:20:09;;;;;;;3.12;2.20;;;;;;;21.77;61.42;100484.02;1794424;79;25769;-59
2021/07/03 06:22:37;;;;;;;2.62;2.20;;;;;;;21.76;60.25;100494.64;1794944;79;26210;-60
2021/07/03 06:25:07;;;;;;;3.85;2.15;;;;;;;21.68;60.71;100489.42;1803418;78;25830;-60
2021/07/03 06:27:37;;;;;;;8.05;2.92;;;;;;;21.60;60.27;100488.30;1808103;79;27456;-59
2021/07/03 06:30:07;;;;;;;6.17;2.55;;;;;;;21.56;60.52;100481.84;1808461;79;25461;-59
2021/07/03 06:32:34;;;;;;;4.75;2.40;;;;;;;21.58;60.76;100490.72;1807770;79;25745;-59
2021/07/03 06:35:03;;;;;;;7.28;2.98;;;;;;;21.62;60.59;100487.02;1808366;79;26190;-59
2021/07/03 06:37:30;;;;;;;3.33;2.90;;;;;;;21.68;60.86;100496.27;1808352;79;25772;-59
2021/07/03 06:39:57;;;;;;;6.08;2.75;;;;;;;21.71;60.86;100498.03;1808250;79;27469;-59
2021/07/03 06:42:24;;;;;;;4.47;2.72;;;;;;;21.70;60.80;100496.34;1808247;79;25809;-59
2021/07/03 06:44:52;;;;;;;4.33;2.80;;;;;;;21.58;61.12;100485.78;1808219;79;25690;-59
2021/07/03 06:47:20;;;;;;;4.20;2.92;;;;;;;21.57;61.50;100488.17;1807361;79;25709;-59
2021/07/03 06:49:47;;;;;;;12.58;2.80;;;;;;;21.66;61.93;100492.89;1808481;79;26374;-62
2021/07/03 06:52:14;;;;;;;6.00;2.77;;;;;;;21.68;61.74;100493.52;1777117;79;27484;-62
2021/07/03 06:54:41;;;;;;;5.12;3.42;;;;;;;21.67;62.19;100494.06;1759199;81;25687;-62
2021/07/03 06:57:11;;;;;;;3.22;2.80;;;;;;;21.71;62.33;100487.63;1759783;81;25672;-62
2021/07/03 06:59:38;;;;;;;6.35;3.02;;;;;;;21.73;61.93;100492.36;1759446;81;25711;-61
2021/07/03 07:02:05;;;;;;;8.58;5.45;;;;;;;21.76;62.00;100490.54;1758717;81;25526;-58
2021/07/03 07:04:32;;;;;;;5.90;3.70;;;;;;;21.85;61.85;100489.23;1758988;80;28114;-58
2021/07/03 07:06:59;;;;;;;6.55;3.85;;;;;;;21.90;61.77;100495.42;1759281;81;25768;-61
2021/07/03 07:09:27;;;;;;;4.62;3.52;;;;;;;21.91;61.66;100505.87;1759908;81;25809;-58
2021/07/03 07:11:57;;;;;;;5.08;3.60;;;;;;;21.88;61.53;100487.44;1759491;80;25750;-58
2021/07/03 07:14:24;;;;;;;6.78;3.30;;;;;;;21.88;61.77;100489.32;1759540;81;25776;-58
2021/07/03 07:16:51;;;;;;;4.95;2.58;;;;;;;21.98;61.27;100496.54;1759070;81;27482;-58
2021/07/03 07:19:18;;;;;;;3.42;3.00;;;;;;;21.89;61.08;100491.86;1759532;81;25699;-59
2021/07/03 07:21:45;;;;;;;12.47;3.52;;;;;;;21.88;61.02;100488.81;1761479;80;25820;-59
2021/07/03 07:24:12;;;;;;;4.15;3.10;;;;;;;21.88;61.10;100491.55;1781705;78;26248;-59
2021/07/03 07:26:39;;;;;;;12.43;3.52;;;;;;;22.02;60.84;100492.32;1767212;81;25819;-59
2021/07/03 07:29:07;;;;;;;5.03;3.08;;;;;;;22.10;61.00;100488.46;1766585;81;27491;-59
2021/07/03 07:31:34;;;;;;;4.33;2.90;;;;;;;22.27;61.14;100489.34;1766687;81;25855;-59
2021/07/03 07:34:02;;;;;;;3.27;2.75;;;;;;;22.36;60.29;100488.01;1766120;81;25833;-60
2021/07/03 07:36:29;;;;;;;5.00;2.75;;;;;;;22.36;60.11;100486.09;1766610;81;26174;-59
2021/07/03 07:38:56;;;;;;;6.72;2.87;;;;;;;22.27;59.90;100485.23;1766585;81;25801;-59
2021/07/03 07:41:23;;;;;;;4.37;2.87;;;;;;;22.20;59.64;100483.34;1766537;81;27591;-59
2021/07/03 07:43:52;;;;;;;4.78;2.60;;;;;;;22.16;59.62;100484.86;1767567;81;25965;-59
2021/07/03 07:46:19;;;;;;;6.05;2.80;;;;;;;22.04;59.94;100487.98;1767465;81;25791;-59
2021/07/03 07:48:46;;;;;;;7.10;3.47;;;;;;;21.95;60.55;100485.19;1767766;81;25779;-59
2021/07/03 07:51:13;;;;;;;4.47;2.77;;;;;;;21.93;60.65;100484.05;1767450;81;25724;-59
2021/07/03 07:53:40;;;;;;;6.30;2.77;;;;;;;21.94;60.70;100485.73;1767565;81;27487;-59
2021/07/03 07:56:07;;;;;;;5.87;2.90;;;;;;;22.01;61.14;100484.30;1767156;81;25791;-59
2021/07/03 07:58:34;;;;;;;2.40;2.20;;;;;;;22.14;60.63;100477.39;1767550;81;25801;-59
2021/07/03 08:01:01;;;;;;;5.78;2.98;;;;;;;22.24;60.46;100476.89;1768152;81;25831;-59
2021/07/03 08:03:28;;;;;;;3.75;2.47;;;;;;;22.34;60.35;100477.80;1775073;79;25743;-59
2021/07/03 08:05:54;;;;;;;7.12;3.02;;;;;;;22.55;60.11;100486.75;1776571;80;29543;-59
2021/07/03 08:08:21;;;;;;;6.75;2.85;;;;;;;22.65;59.95;100479.70;1782742;80;26636;-59
2021/07/03 08:10:48;;;;;;;7.00;2.67;;;;;;;22.87;59.67;100483.94;1778274;80;25810;-59
2021/07/03 08:13:15;;;;;;;11.45;6.10;;;;;;;23.03;59.17;100484.73;1768555;80;25860;-59
2021/07/03 08:15:44;;;;;;;8.53;3.52;;;;;;;23.03;58.21;100479.24;1764633;80;25851;-59
2021/07/03 08:18:11;;;;;;;37.10;25.32;;;;;;;23.06;58.52;100487.55;1763298;80;27474;-59
2021/07/03 08:20:38;;;;;;;5.33;3.42;;;;;;;23.25;58.47;100485.16;1763354;80;25522;-59
2021/07/03 08:23:05;;;;;;;7.80;3.05;;;;;;;23.51;57.44;100482.36;1763189;81;25660;-60
2021/07/03 08:25:32;;;;;;;5.12;2.50;;;;;;;23.68;57.02;100472.42;1759963;80;25732;-59
2021/07/03 08:27:59;;;;;;;7.00;3.20;;;;;;;23.80;56.97;100472.48;1775253;80;25854;-59
2021/07/03 08:30:28;;;;;;;6.70;2.80;;;;;;;23.88;56.20;100469.95;1771869;80;27482;-59
2021/07/03 08:32:56;;;;;;;6.45;3.12;;;;;;;24.00;56.43;100470.86;1752361;81;25747;-59
2021/07/03 08:35:23;;;;;;;4.65;3.05;;;;;;;24.06;55.37;100468.57;1760868;80;25707;-59
2021/07/03 08:37:50;;;;;;;6.60;2.77;;;;;;;23.99;56.00;100466.43;1765893;80;25712;-60
2021/07/03 08:40:18;;;;;;;8.80;2.95;;;;;;;24.00;55.90;100476.35;1769002;80;25789;-59
2021/07/03 08:42:46;;;;;;;3.65;2.50;;;;;;;24.08;55.30;100468.33;1764491;80;27523;-59
2021/07/03 08:45:14;;;;;;;4.28;2.58;;;;;;;24.12;55.11;100464.02;1762100;80;25779;-60
2021/07/03 08:47:44;;;;;;;3.17;2.58;;;;;;;24.17;54.79;100461.95;1770704;80;25802;-60
2021/07/03 08:50:15;;;;;;;7.20;2.87;;;;;;;24.24;55.13;100450.34;1765188;80;26334;-60
2021/07/03 08:52:44;;;;;;;5.25;2.60;;;;;;;24.30;55.12;100448.02;1771938;80;25764;-60
2021/07/03 08:55:24;;;;;;;3.87;2.67;;;;;;;24.22;53.06;100452.48;1775787;80;27423;-60
2021/07/03 08:58:04;;;;;;;3.95;2.42;;;;;;;24.30;54.33;100445.27;1773122;80;25741;-60
2021/07/03 09:00:42;;;;;;;4.35;2.55;;;;;;;24.50;54.04;100438.61;1767874;80;25798;-59
2021/07/03 09:03:22;;;;;;;6.95;2.98;;;;;;;24.69;54.10;100440.22;1761969;80;25689;-60
2021/07/03 09:05:56;;;;;;;5.28;3.08;;;;;;;24.99;53.88;100443.37;1768647;80;25739;-60
2021/07/03 09:08:26;;;;;;;7.47;2.90;;;;;;;25.27;52.71;100435.45;1758012;80;27863;-60
2021/07/03 09:11:09;;;;;;;5.08;2.90;;;;;;;25.29;51.12;100438.25;1766714;80;25882;-59
2021/07/03 09:13:39;;;;;;;4.70;2.85;;;;;;;25.24;51.33;100431.80;1762617;80;25910;-60
2021/07/03 09:16:06;;;;;;;4.65;3.27;;;;;;;25.30;51.60;100436.32;1774213;80;25763;-61
2021/07/03 09:18:33;;;;;;;4.03;2.65;;;;;;;25.33;51.35;100441.35;1775510;80;25948;-59
2021/07/03 09:21:04;;;;;;;3.50;3.08;;;;;;;25.03;50.62;100444.27;1762302;80;27478;-59
2021/07/03 09:23:39;;;;;;;3.25;2.87;;;;;;;24.92;51.26;100443.21;1771799;80;25835;-59
2021/07/03 09:26:09;;;;;;;5.78;3.30;;;;;;;24.67;51.24;100439.62;1775349;80;25756;-59
2021/07/03 09:28:44;;;;;;;3.58;3.10;;;;;;;24.60;51.56;100433.37;1752167;81;25842;-58
2021/07/03 09:31:15;;;;;;;3.50;3.20;;;;;;;24.68;51.47;100430.81;1762975;80;25810;-59
2021/07/03 09:33:52;;;;;;;5.08;3.15;;;;;;;24.66;51.83;100439.28;1775698;80;27435;-59
2021/07/03 09:36:29;;;;;;;4.53;3.52;;;;;;;24.62;52.66;100440.82;1775271;80;25783;-63
2021/07/03 09:38:59;;;;;;;5.80;3.95;;;;;;;24.54;52.49;100443.92;1775182;80;25753;-60
2021/07/03 09:41:38;;;;;;;6.12;3.62;;;;;;;24.48;52.32;100448.45;1774731;80;25719;-59
2021/07/03 09:44:12;;;;;;;5.15;4.15;;;;;;;24.54;53.06;100443.92;1774976;80;25728;-59
2021/07/03 09:46:51;;;;;;;6.00;4.65;;;;;;;24.77;53.03;100440.94;1774939;80;28131;-59
2021/07/03 09:49:28;;;;;;;5.95;4.42;;;;;;;25.26;52.40;100441.48;1775133;80;25794;-59
2021/07/03 09:51:59;;;;;;;15.15;4.87;;;;;;;25.74;51.08;100431.73;1766345;80;25743;-59
2021/07/03 09:54:29;;;;;;;5.10;4.45;;;;;;;26.01;49.90;100428.38;1763771;80;25765;-59
2021/07/03 09:57:01;;;;;;;7.33;4.67;;;;;;;26.35;48.86;100429.83;1768310;80;25825;-59
2021/07/03 09:59:34;;;;;;;7.40;4.67;;;;;;;26.75;47.77;100419.69;1760859;80;27512;-59
2021/07/03 10:02:03;;;;;;;6.83;5.22;;;;;;;27.15;47.91;100425.55;1771298;80;26551;-59
2021/07/03 10:04:30;;;;;;;5.42;4.30;;;;;;;27.52;45.61;100422.70;1768864;80;25798;-59
2021/07/03 10:07:18;;;;;;;6.08;4.75;;;;;;;27.75;43.53;100418.83;1747911;80;25809;-59
2021/07/03 10:10:03;;;;;;;9.30;4.75;;;;;;;28.01;42.75;100421.84;1750713;81;25731;-60
2021/07/03 10:12:30;;;;;;;5.83;4.65;;;;;;;28.08;42.20;100416.44;1751535;81;27540;-59
2021/07/03 10:14:58;;;;;;;10.85;5.75;;;;;;;28.10;42.23;100414.25;1751969;81;25866;-59
2021/07/03 10:17:32;;;;;;;15.35;4.55;;;;;;;28.10;42.97;100414.78;1753788;80;25822;-60
2021/07/03 10:19:59;;;;;;;9.43;4.47;;;;;;;28.25;42.58;100427.35;1760373;80;26145;-60
2021/07/03 10:22:33;;;;;;;5.08;4.05;;;;;;;28.41;42.43;100422.80;1771893;80;25819;-60
2021/07/03 10:25:13;;;;;;;4.10;3.70;;;;;;;28.53;42.16;100413.48;1775253;80;27473;-60
2021/07/03 10:27:57;;;;;;;6.47;3.47;;;;;;;28.86;42.04;100416.51;1771309;80;25666;-59
2021/07/03 10:30:27;;;;;;;5.58;3.17;;;;;;;29.14;42.27;100411.64;1750816;80;35950;-59
2021/07/03 10:33:02;;;;;;;9.13;4.10;;;;;;;29.57;40.97;100414.91;1753082;81;25515;-60
2021/07/03 10:35:49;;;;;;;4.60;3.27;;;;;;;29.82;39.59;100412.73;1754631;80;26409;-63
2021/07/03 10:38:23;;;;;;;7.05;3.30;;;;;;;29.73;39.27;100412.99;1745936;80;27691;-60
2021/07/03 10:40:53;;;;;;;6.65;3.55;;;;;;;29.94;38.93;100403.65;1748162;80;25535;-61
2021/07/03 10:43:31;;;;;;;8.08;3.50;;;;;;;30.24;39.39;100402.55;1760338;80;25721;-63
2021/07/03 10:46:06;;;;;;;9.50;3.50;;;;;;;30.34;37.65;100398.39;1755080;80;25946;-63
2021/07/03 10:48:32;;;;;;;5.62;2.90;;;;;;;30.52;36.83;100397.03;1756764;80;26744;-60
2021/07/03 10:51:12;;;;;;;3.17;2.90;;;;;;;30.76;37.61;100397.81;1771650;80;27504;-60
2021/07/03 10:53:39;;;;;;;4.53;3.30;;;;;;;31.12;37.01;100396.89;1765825;80;25907;-61
2021/07/03 10:56:14;;;;;;;15.72;3.10;;;;;;;31.58;35.54;100398.06;1771057;80;25736;-60
2021/07/03 10:58:43;;;;;;;2.65;2.15;;;;;;;31.89;34.96;100401.23;1773819;80;25688;-61
2021/07/03 11:01:15;;;;;;;5.70;2.72;;;;;;;32.17;33.37;100399.66;1761281;80;25836;-62
2021/07/03 11:03:50;;;;;;;5.17;2.67;;;;;;;32.23;33.52;100400.48;1763868;80;27497;-60
2021/07/03 11:06:21;;;;;;;4.30;2.55;;;;;;;32.29;33.50;100404.29;1752702;81;25478;-61
2021/07/03 11:08:49;;;;;;;3.37;2.95;;;;;;;32.47;33.42;100403.30;1771994;80;25826;-60
2021/07/03 11:11:18;;;;;;;6.08;2.85;;;;;;;33.22;32.18;100396.39;1778657;80;25608;-61
2021/07/03 11:13:47;;;;;;;5.30;4.72;;;;;;;33.63;31.71;100394.19;1778768;80;25736;-60
2021/07/03 11:16:16;;;;;;;6.62;2.98;;;;;;;33.96;29.82;100395.69;1751519;80;28214;-62
2021/07/03 11:18:45;;;;;;;10.10;2.92;;;;;;;34.22;29.76;100396.66;1775117;80;25784;-61
2021/07/03 11:21:14;;;;;;;6.47;3.00;;;;;;;34.85;30.02;100390.23;1777942;80;25771;-61
2021/07/03 11:23:42;;;;;;;4.35;2.75;;;;;;;35.53;28.68;100385.78;1778685;80;25831;-61
2021/07/03 11:26:15;;;;;;;3.00;2.40;;;;;;;35.72;25.88;100388.99;1776913;80;25769;-61
2021/07/03 11:28:58;;;;;;;4.83;2.60;;;;;;;35.58;26.84;100389.03;1773461;80;27477;-61
2021/07/03 11:31:21;;;;;;;3.92;2.72;;;;;;;35.78;26.79;100384.92;1737454;80;26451;-60
2021/07/03 11:33:55;;;;;;;9.65;2.92;;;;;;;36.00;26.35;100379.09;1775211;80;25962;-60